createdAt,value
2024-02-26T00:02:16.389Z,100.00
2024-02-26T00:05:05.392Z,100.00
2024-02-26T00:08:06.478Z,100.00
2024-02-26T00:11:07.449Z,100.00
2024-02-26T00:14:08.460Z,100.00
2024-02-26T00:17:09.446Z,100.00
2024-02-26T00:20:12.444Z,100.00
2024-02-26T00:23:13.394Z,100.00
2024-02-26T00:26:14.416Z,100.00
2024-02-26T00:29:15.454Z,100.00
2024-02-26T00:32:16.451Z,100.00
2024-02-26T00:35:17.495Z,100.00
2024-02-26T00:38:18.460Z,100.00
2024-02-26T00:41:19.482Z,100.00
2024-02-26T00:44:20.467Z,100.00
2024-02-26T00:47:21.557Z,100.00
2024-02-26T00:50:22.528Z,100.00
2024-02-26T00:53:23.508Z,100.00
2024-02-26T00:56:24.553Z,100.00
2024-02-26T00:59:25.640Z,100.00
2024-02-26T01:02:26.595Z,100.00
2024-02-26T01:05:28.556Z,100.00
2024-02-26T01:08:29.557Z,100.00
2024-02-26T01:11:30.605Z,100.00
2024-02-26T01:14:31.543Z,100.00
2024-02-26T01:17:32.499Z,100.00
2024-02-26T01:20:33.595Z,100.00
2024-02-26T01:23:34.575Z,100.00
2024-02-26T01:26:35.553Z,100.00
2024-02-26T01:29:36.696Z,100.00
2024-02-26T01:32:37.678Z,100.00
2024-02-26T01:35:38.636Z,100.00
2024-02-26T01:38:39.644Z,100.00
2024-02-26T01:41:41.830Z,100.00
2024-02-26T01:44:42.654Z,100.00
2024-02-26T01:47:46.959Z,100.00
2024-02-26T01:50:49.672Z,100.00
2024-02-26T01:53:50.636Z,100.00
2024-02-26T01:56:54.746Z,100.00
2024-02-26T01:59:56.712Z,100.00
2024-02-26T02:03:00.698Z,100.00
2024-02-26T02:06:02.056Z,100.00
2024-02-26T02:09:02.718Z,100.00
2024-02-26T02:12:03.805Z,100.00
2024-02-26T02:15:04.721Z,100.00
2024-02-26T02:18:05.880Z,100.00
2024-02-26T02:21:08.703Z,100.00
2024-02-26T04:54:04.099Z,100.00
2024-02-26T04:57:05.000Z,100.00
2024-02-26T05:00:06.020Z,100.00
2024-02-26T05:03:07.049Z,100.00
2024-02-26T05:06:08.083Z,100.00
2024-02-26T05:09:09.031Z,100.00
2024-02-26T05:12:10.016Z,100.00
2024-02-26T05:15:11.090Z,100.00
2024-02-26T05:18:12.076Z,100.00
2024-02-26T05:21:13.054Z,100.00
2024-02-26T05:24:14.112Z,100.00
2024-02-26T05:27:15.074Z,100.00
2024-02-26T05:30:17.172Z,100.00
2024-02-26T05:33:19.097Z,100.00
2024-02-26T05:36:20.138Z,100.00
2024-02-26T05:39:21.440Z,100.00
2024-02-26T05:42:22.062Z,100.00
2024-02-26T05:45:23.171Z,100.00
2024-02-26T05:48:26.187Z,100.00
2024-02-26T05:51:27.217Z,100.00
2024-02-26T05:54:28.273Z,100.00
2024-02-26T05:57:29.162Z,100.00
2024-02-26T06:00:30.276Z,100.00
2024-02-26T06:03:32.277Z,100.00
2024-02-26T06:06:34.364Z,100.00
2024-02-26T06:09:37.114Z,100.00
2024-02-26T06:12:39.134Z,100.00
2024-02-26T06:15:40.126Z,100.00
2024-02-26T06:18:41.598Z,100.00
2024-02-26T06:21:43.141Z,100.00
2024-02-26T06:24:44.167Z,100.00
2024-02-26T06:27:45.203Z,100.00
2024-02-26T06:30:46.244Z,100.00
2024-02-26T06:33:47.328Z,100.00
2024-02-26T06:36:48.186Z,100.00
2024-02-26T06:39:50.192Z,100.00
2024-02-26T06:42:52.187Z,100.00
2024-02-26T06:45:53.158Z,100.00
2024-02-26T06:48:56.000Z,100.00
2024-02-26T06:51:57.212Z,100.00
2024-02-26T06:54:59.225Z,100.00
2024-02-26T06:58:00.409Z,100.00
2024-02-26T07:01:01.335Z,100.00
2024-02-26T07:04:02.309Z,100.00
2024-02-26T07:07:03.379Z,100.00
2024-02-26T07:10:04.333Z,100.00
2024-02-26T07:13:05.223Z,100.00
2024-02-26T07:16:06.308Z,100.00
2024-02-26T07:19:07.414Z,100.00
2024-02-26T07:22:11.381Z,100.00
2024-02-26T07:25:12.279Z,100.00
2024-02-26T07:28:13.322Z,100.00
2024-02-26T07:31:14.273Z,100.00
2024-02-26T07:34:15.496Z,100.00
2024-02-26T07:37:16.328Z,100.00
2024-02-26T07:40:18.303Z,100.00
2024-02-26T07:43:19.304Z,100.00
2024-02-26T07:46:20.328Z,100.00
2024-02-26T07:49:21.509Z,100.00
2024-02-26T07:52:22.276Z,100.00
2024-02-26T07:55:23.417Z,100.00
2024-02-26T07:58:24.337Z,100.00
2024-02-26T08:01:28.398Z,100.00
2024-02-26T08:04:29.447Z,100.00
2024-02-26T08:07:30.399Z,100.00
2024-02-26T08:10:33.551Z,100.00
2024-02-26T08:13:34.332Z,100.00
2024-02-26T08:16:37.221Z,100.00
2024-02-26T08:19:38.487Z,100.00
2024-02-26T08:22:39.388Z,100.00
2024-02-26T08:25:40.362Z,100.00
2024-02-26T08:28:41.378Z,100.00
2024-02-26T08:31:45.521Z,100.00
2024-02-26T08:34:46.541Z,100.00
2024-02-26T08:37:47.428Z,100.00
2024-02-26T08:40:48.418Z,100.00
2024-02-26T08:43:49.444Z,100.00
2024-02-26T08:46:50.399Z,100.00
2024-02-26T08:49:51.474Z,100.00
2024-02-26T08:52:56.446Z,100.00
2024-02-26T08:55:57.456Z,100.00
2024-02-26T08:59:01.469Z,100.00
2024-02-26T09:02:02.465Z,100.00
2024-02-26T09:05:03.496Z,100.00
2024-02-26T09:08:04.581Z,100.00
2024-02-26T09:11:05.480Z,100.00
2024-02-26T09:14:06.493Z,100.00
2024-02-26T09:17:07.489Z,100.00
2024-02-26T09:20:08.509Z,100.00
2024-02-26T09:23:09.522Z,100.00
2024-02-26T09:26:10.875Z,100.00
2024-02-26T09:29:11.532Z,100.00
2024-02-26T09:32:13.619Z,100.00
2024-02-26T09:35:14.624Z,100.00
2024-02-26T09:38:15.511Z,100.00
2024-02-26T09:41:16.560Z,100.00
2024-02-26T09:44:19.539Z,100.00
2024-02-26T09:47:24.597Z,100.00
2024-02-26T09:50:30.537Z,100.00
2024-02-26T09:53:32.675Z,100.00
2024-02-26T09:56:34.595Z,100.00
2024-02-26T09:59:37.622Z,100.00
2024-02-26T10:02:40.609Z,100.00
2024-02-26T10:05:41.658Z,100.00
2024-02-26T10:08:43.705Z,100.00
2024-02-26T10:11:44.677Z,100.00
2024-02-26T10:14:45.661Z,100.00
2024-02-26T10:17:47.665Z,100.00
2024-02-26T10:20:48.690Z,100.00
2024-02-26T10:23:49.651Z,100.00
2024-02-26T10:26:50.668Z,100.00
2024-02-26T10:29:51.647Z,99.05
2024-02-26T10:32:53.754Z,97.56
2024-02-26T10:35:54.673Z,96.92
2024-02-26T10:38:56.723Z,96.15
2024-02-26T10:41:59.692Z,95.49
2024-02-26T10:45:00.742Z,94.18
2024-02-26T10:48:01.837Z,93.11
2024-02-26T10:51:03.722Z,91.52
2024-02-26T10:54:09.722Z,90.55
2024-02-26T10:57:11.717Z,90.04
2024-02-26T11:00:14.768Z,89.79
2024-02-26T11:03:17.748Z,89.11
2024-02-26T11:06:19.792Z,88.67
2024-02-26T11:09:22.755Z,87.63
2024-02-26T11:12:25.790Z,87.04
2024-02-26T11:15:26.773Z,86.28
2024-02-26T11:18:29.879Z,85.45
2024-02-26T11:21:47.729Z,84.62
2024-02-26T11:24:50.773Z,84.26
2024-02-26T11:27:57.232Z,83.79
2024-02-26T11:31:01.783Z,83.03
2024-02-26T11:34:03.000Z,82.04
2024-02-26T11:37:03.785Z,81.32
2024-02-26T11:40:06.902Z,80.56
2024-02-26T11:43:08.787Z,79.98
2024-02-26T11:46:10.791Z,79.07
2024-02-26T11:49:15.007Z,78.07
2024-02-26T11:52:20.868Z,77.51
2024-02-26T11:55:21.827Z,77.46
2024-02-26T11:58:22.815Z,77.38
2024-02-26T12:01:52.830Z,77.17
2024-02-26T12:04:53.897Z,76.69
2024-02-26T12:07:56.831Z,76.38
2024-02-26T12:10:57.864Z,75.67
2024-02-26T12:14:03.618Z,75.37
2024-02-26T12:17:06.917Z,74.65
2024-02-26T12:20:08.147Z,73.78
2024-02-26T12:23:08.883Z,73.15
2024-02-26T12:26:18.898Z,72.33
2024-02-26T12:29:19.914Z,71.76
2024-02-26T12:32:20.873Z,71.31
2024-02-26T12:35:22.088Z,71.00
2024-02-26T12:38:22.876Z,70.28
2024-02-26T12:41:23.903Z,69.89
2024-02-26T12:44:24.889Z,69.47
2024-02-26T12:47:26.918Z,68.73
2024-02-26T12:50:28.048Z,67.98
2024-02-26T12:53:28.927Z,67.29
2024-02-26T12:56:29.935Z,66.97
2024-02-26T12:59:30.954Z,66.85
2024-02-26T13:02:31.965Z,66.51
2024-02-26T13:05:35.068Z,66.18
2024-02-26T13:08:35.958Z,65.76
2024-02-26T13:11:36.979Z,65.35
2024-02-26T13:14:39.977Z,64.88
2024-02-26T13:17:41.023Z,64.61
2024-02-26T13:20:45.001Z,64.39
2024-02-26T13:23:46.024Z,64.21
2024-02-26T13:26:47.007Z,63.89
2024-02-26T13:29:48.017Z,63.75
2024-02-26T13:32:55.154Z,63.36
2024-02-26T13:35:56.092Z,63.13
2024-02-26T13:39:13.057Z,62.71
2024-02-26T13:42:14.062Z,62.51
2024-02-26T13:45:15.188Z,62.25
2024-02-26T13:48:21.227Z,62.05
2024-02-26T13:51:22.122Z,61.89
2024-02-26T13:54:23.126Z,61.61
2024-02-26T13:57:24.128Z,61.38
2024-02-26T14:00:25.111Z,61.33
2024-02-26T14:03:27.092Z,61.17
2024-02-26T14:06:28.186Z,61.14
2024-02-26T14:09:35.788Z,60.78
2024-02-26T14:12:45.105Z,60.75
2024-02-26T14:15:47.182Z,60.50
2024-02-26T14:18:49.289Z,60.27
2024-02-26T14:21:50.106Z,60.18
2024-02-26T14:24:44.107Z,60.10
2024-02-26T14:27:32.247Z,59.86
2024-02-26T14:30:33.228Z,59.85
2024-02-26T14:33:34.669Z,59.67
2024-02-26T14:36:37.151Z,59.45
2024-02-26T14:39:39.175Z,59.39
2024-02-26T14:42:40.180Z,59.17
2024-02-26T14:45:41.382Z,58.92
2024-02-26T14:48:42.284Z,58.98
2024-02-26T14:51:43.149Z,58.83
2024-02-26T14:54:46.206Z,58.62
2024-02-26T14:57:47.138Z,58.33
2024-02-26T15:00:48.282Z,58.11
2024-02-26T15:03:49.320Z,58.11
2024-02-26T15:06:53.283Z,58.08
2024-02-26T15:09:54.186Z,57.96
2024-02-26T15:12:55.201Z,58.02
2024-02-26T15:16:03.329Z,58.00
2024-02-26T15:19:04.311Z,57.90
2024-02-26T15:22:05.208Z,58.00
2024-02-26T15:25:06.270Z,57.92
2024-02-26T15:28:07.197Z,58.11
2024-02-26T15:31:08.777Z,57.98
2024-02-26T15:34:10.381Z,58.10
2024-02-26T15:37:14.030Z,58.07
2024-02-26T15:40:15.252Z,58.06
2024-02-26T15:43:16.260Z,58.12
2024-02-26T15:46:17.295Z,58.16
2024-02-26T15:49:18.358Z,58.29
2024-02-26T15:52:19.277Z,58.08
2024-02-26T15:55:22.359Z,58.37
2024-02-26T15:58:23.323Z,58.41
2024-02-26T16:01:26.098Z,58.47
2024-02-26T16:04:30.382Z,58.40
2024-02-26T16:07:36.295Z,58.59
2024-02-26T16:10:38.326Z,58.76
2024-02-26T16:13:39.319Z,58.97
2024-02-26T16:16:43.375Z,59.19
2024-02-26T16:19:44.387Z,59.20
2024-02-26T16:22:45.348Z,59.37
2024-02-26T16:25:39.362Z,59.58
2024-02-26T16:28:29.348Z,59.61
2024-02-26T16:31:30.968Z,59.73
2024-02-26T16:34:32.432Z,59.84
2024-02-26T16:37:35.386Z,60.12
2024-02-26T16:40:36.387Z,60.41
2024-02-26T16:43:38.392Z,60.49
2024-02-26T16:46:39.401Z,60.67
2024-02-26T16:49:40.497Z,60.76
2024-02-26T16:52:34.928Z,61.02
2024-02-26T16:55:35.431Z,61.12
2024-02-26T16:58:36.417Z,61.37
2024-02-26T17:01:37.458Z,61.50
2024-02-26T17:04:38.521Z,61.61
2024-02-26T17:07:39.418Z,61.88
2024-02-26T17:10:40.463Z,62.20
2024-02-26T17:13:41.460Z,62.29
2024-02-26T17:16:44.422Z,62.59
2024-02-26T17:19:45.441Z,62.69
2024-02-26T17:22:39.541Z,62.90
2024-02-26T17:25:40.455Z,63.08
2024-02-26T17:28:43.474Z,63.34
2024-02-26T17:31:49.486Z,63.43
2024-02-26T17:34:50.578Z,63.63
2024-02-26T17:37:51.492Z,63.99
2024-02-26T17:40:52.490Z,64.17
2024-02-26T17:43:53.491Z,64.52
2024-02-26T17:46:54.500Z,64.73
2024-02-26T17:49:55.718Z,64.93
2024-02-26T17:52:57.576Z,65.19
2024-02-26T17:55:58.771Z,65.37
2024-02-26T17:58:59.514Z,65.80
2024-02-26T18:02:00.598Z,66.07
2024-02-26T18:05:01.588Z,66.37
2024-02-26T18:08:02.581Z,66.61
2024-02-26T18:11:03.618Z,67.06
2024-02-26T18:14:05.654Z,67.42
2024-02-26T18:17:06.572Z,67.67
2024-02-26T18:20:07.715Z,68.03
2024-02-26T18:23:08.588Z,68.15
2024-02-26T18:26:11.575Z,68.37
2024-02-26T18:29:13.620Z,68.75
2024-02-26T18:32:14.589Z,68.89
2024-02-26T18:35:15.645Z,69.22
2024-02-26T18:38:16.600Z,69.44
2024-02-26T18:41:18.718Z,69.88
2024-02-26T18:44:19.626Z,69.99
2024-02-26T18:47:20.649Z,70.37
2024-02-26T18:50:14.732Z,70.84
2024-02-26T18:53:09.634Z,70.78
2024-02-26T18:56:10.659Z,71.15
2024-02-26T18:59:12.656Z,71.53
2024-02-26T19:02:13.661Z,71.91
2024-02-26T19:05:14.644Z,72.26
2024-02-26T19:08:16.709Z,72.68
2024-02-26T19:11:22.755Z,73.00
2024-02-26T19:14:23.692Z,73.22
2024-02-26T19:17:26.840Z,73.66
2024-02-26T19:20:27.703Z,73.72
2024-02-26T19:23:28.690Z,74.13
2024-02-26T19:26:29.762Z,74.40
2024-02-26T19:29:30.715Z,74.56
2024-02-26T19:32:31.737Z,74.67
2024-02-26T19:35:32.710Z,74.99
2024-02-26T19:38:33.778Z,75.10
2024-02-26T19:41:34.714Z,75.29
2024-02-26T19:44:36.186Z,75.53
2024-02-26T19:47:36.766Z,75.98
2024-02-26T19:50:37.791Z,76.19
2024-02-26T19:53:38.756Z,76.65
2024-02-26T19:56:41.755Z,76.94
2024-02-26T19:59:42.773Z,77.32
2024-02-26T20:02:44.878Z,77.76
2024-02-26T20:05:45.797Z,78.45
2024-02-26T20:08:46.779Z,78.83
2024-02-26T20:11:47.818Z,79.27
2024-02-26T20:14:48.773Z,79.47
2024-02-26T20:17:49.852Z,79.82
2024-02-26T20:20:50.836Z,80.29
2024-02-26T20:23:52.872Z,80.40
2024-02-26T20:26:56.904Z,80.84
2024-02-26T20:29:59.911Z,81.30
2024-02-26T20:33:01.119Z,81.50
2024-02-26T20:36:01.869Z,81.78
2024-02-26T20:39:02.894Z,81.94
2024-02-26T20:42:03.924Z,82.53
2024-02-26T20:45:05.912Z,82.89
2024-02-26T20:48:06.954Z,83.23
2024-02-26T20:51:07.960Z,83.39
2024-02-26T20:54:08.873Z,83.77
2024-02-26T20:57:10.958Z,83.95
2024-02-26T21:00:13.953Z,84.41
2024-02-26T21:03:16.988Z,84.60
2024-02-26T21:06:17.937Z,84.74
2024-02-26T21:09:18.948Z,85.03
2024-02-26T21:12:20.080Z,85.28
2024-02-26T21:15:14.234Z,85.48
2024-02-26T21:18:15.071Z,85.75
2024-02-26T21:21:18.959Z,85.98
2024-02-26T21:24:19.990Z,86.23
2024-02-26T21:27:21.083Z,86.51
2024-02-26T21:30:23.017Z,86.78
2024-02-26T21:33:24.126Z,87.06
2024-02-26T21:36:25.998Z,87.29
2024-02-26T21:39:26.991Z,87.43
2024-02-26T21:42:28.026Z,87.91
2024-02-26T21:45:22.424Z,88.01
2024-02-26T21:48:16.035Z,88.15
2024-02-26T21:51:17.050Z,88.44
2024-02-26T21:54:18.096Z,88.91
2024-02-26T21:57:19.085Z,89.26
2024-02-26T22:00:20.026Z,89.61
2024-02-26T22:03:21.186Z,89.78
2024-02-26T22:06:22.091Z,90.27
2024-02-26T22:09:23.115Z,90.89
2024-02-26T22:12:25.086Z,91.33
2024-02-26T22:15:27.077Z,91.29
2024-02-26T22:18:28.202Z,91.66
2024-02-26T22:21:29.070Z,92.05
2024-02-26T22:24:30.099Z,92.24
2024-02-26T22:27:31.090Z,92.74
2024-02-26T22:30:32.092Z,93.34
2024-02-26T22:33:33.259Z,93.72
2024-02-26T22:36:34.136Z,93.89
2024-02-26T22:39:35.211Z,94.41
2024-02-26T22:42:36.273Z,94.74
2024-02-26T22:45:37.164Z,95.13
2024-02-26T22:48:39.332Z,95.57
2024-02-26T22:51:40.155Z,95.98
2024-02-26T22:54:41.177Z,96.43
2024-02-26T22:57:42.191Z,96.75
2024-02-26T23:00:43.277Z,97.19
2024-02-26T23:03:44.152Z,97.56
2024-02-26T23:06:45.307Z,98.05
2024-02-26T23:09:46.150Z,98.21
2024-02-26T23:12:47.131Z,98.61
2024-02-26T23:15:48.223Z,99.37
2024-02-26T23:18:49.253Z,99.77
2024-02-26T23:21:50.183Z,100.00
2024-02-26T23:24:51.176Z,100.00
2024-02-26T23:27:52.197Z,100.00
2024-02-26T23:30:53.184Z,100.00
2024-02-26T23:33:54.409Z,100.00
2024-02-26T23:36:55.197Z,100.00
2024-02-26T23:39:56.241Z,100.00
2024-02-26T23:42:58.299Z,100.00
2024-02-26T23:45:59.228Z,100.00
2024-02-26T23:49:00.259Z,100.00
2024-02-26T23:52:01.262Z,100.00
2024-02-26T23:55:02.236Z,100.00
2024-02-26T23:58:03.246Z,100.00
